createdAt,value
2018-06-21T00:00:26.175Z,0.00
2018-06-21T00:01:26.185Z,0.00
2018-06-21T00:02:26.184Z,0.00
2018-06-21T00:03:26.186Z,0.00
2018-06-21T00:04:26.191Z,0.00
2018-06-21T00:05:26.196Z,0.00
2018-06-21T00:06:26.197Z,0.00
2018-06-21T00:07:26.202Z,0.00
2018-06-21T00:08:26.205Z,0.00
2018-06-21T00:09:26.209Z,0.00
2018-06-21T00:10:26.213Z,0.00
2018-06-21T00:11:26.217Z,0.00
2018-06-21T00:12:26.220Z,0.00
2018-06-21T00:13:26.224Z,0.00
2018-06-21T00:14:26.226Z,0.00
2018-06-21T00:15:26.230Z,0.00
2018-06-21T00:16:26.233Z,0.00
2018-06-21T00:17:26.241Z,0.00
2018-06-21T00:18:26.277Z,0.00
2018-06-21T00:19:26.245Z,0.00
2018-06-21T00:20:26.249Z,0.00
2018-06-21T00:21:26.258Z,0.00
2018-06-21T00:22:26.262Z,0.00
2018-06-21T00:23:26.259Z,0.00
2018-06-21T00:24:26.263Z,0.00
2018-06-21T00:25:26.266Z,0.00
2018-06-21T00:26:26.270Z,0.00
2018-06-21T00:27:26.273Z,0.00
2018-06-21T00:28:26.278Z,0.00
2018-06-21T00:29:26.281Z,0.00
2018-06-21T00:30:26.284Z,0.00
2018-06-21T00:31:26.286Z,0.00
2018-06-21T00:32:26.291Z,0.00
2018-06-21T00:33:26.296Z,0.00
2018-06-21T00:34:26.299Z,0.00
2018-06-21T00:35:26.303Z,0.00
2018-06-21T00:36:26.309Z,0.00
2018-06-21T00:37:26.310Z,0.00
2018-06-21T00:38:26.313Z,0.00
2018-06-21T00:39:26.318Z,0.00
2018-06-21T00:40:26.320Z,0.00
2018-06-21T00:41:26.324Z,0.00
2018-06-21T00:42:26.326Z,0.00
2018-06-21T00:43:26.331Z,0.00
2018-06-21T00:44:26.337Z,0.00
2018-06-21T00:45:26.339Z,0.00
2018-06-21T00:46:26.341Z,0.00
2018-06-21T00:47:26.343Z,0.00
2018-06-21T00:48:26.347Z,0.00
2018-06-21T00:49:26.352Z,0.00
2018-06-21T00:50:26.355Z,0.00
2018-06-21T00:51:26.361Z,0.00
2018-06-21T00:52:26.362Z,0.00
2018-06-21T00:53:26.366Z,0.00
2018-06-21T00:54:26.370Z,0.00
2018-06-21T00:55:26.373Z,0.00
2018-06-21T00:56:26.376Z,0.00
2018-06-21T00:57:26.379Z,0.00
2018-06-21T00:58:26.381Z,0.00
2018-06-21T00:59:26.386Z,0.00
2018-06-21T01:00:26.389Z,0.00
2018-06-21T01:01:26.396Z,0.00
2018-06-21T01:02:26.396Z,0.00
2018-06-21T01:03:26.398Z,0.00
2018-06-21T01:04:26.403Z,0.00
2018-06-21T01:05:26.406Z,0.00
2018-06-21T01:06:26.409Z,0.00
2018-06-21T01:07:26.413Z,0.00
2018-06-21T01:08:26.416Z,0.00
2018-06-21T01:09:26.419Z,0.00
2018-06-21T01:10:26.423Z,0.00
2018-06-21T01:11:26.426Z,0.00
2018-06-21T01:12:26.435Z,0.00
2018-06-21T01:13:26.433Z,0.00
2018-06-21T01:14:26.438Z,0.00
2018-06-21T01:15:26.441Z,0.00
2018-06-21T01:16:26.443Z,0.00
2018-06-21T01:17:26.445Z,0.00
2018-06-21T01:18:26.450Z,0.00
2018-06-21T01:19:26.452Z,0.00
2018-06-21T01:20:26.454Z,0.00
2018-06-21T01:21:26.458Z,0.00
2018-06-21T01:22:26.462Z,0.00
2018-06-21T01:23:26.466Z,0.00
2018-06-21T01:24:26.467Z,0.00
2018-06-21T01:25:26.487Z,0.00
2018-06-21T01:26:26.474Z,0.00
2018-06-21T01:27:26.531Z,0.00
2018-06-21T01:28:26.482Z,0.00
2018-06-21T01:29:26.485Z,0.00
2018-06-21T01:30:26.487Z,0.00
2018-06-21T01:31:26.490Z,0.00
2018-06-21T01:32:26.496Z,0.00
2018-06-21T01:33:26.499Z,0.00
2018-06-21T01:34:26.500Z,0.00
2018-06-21T01:35:26.503Z,0.00
2018-06-21T01:36:26.507Z,0.00
2018-06-21T01:37:26.510Z,0.00
2018-06-21T01:38:26.513Z,0.00
2018-06-21T01:39:26.517Z,0.00
2018-06-21T01:40:26.517Z,0.00
2018-06-21T01:41:26.522Z,0.00
2018-06-21T01:42:26.524Z,0.00
2018-06-21T01:43:26.529Z,0.00
2018-06-21T01:44:26.532Z,0.00
2018-06-21T01:45:26.534Z,0.00
2018-06-21T01:46:26.539Z,0.00
2018-06-21T01:47:26.540Z,0.00
2018-06-21T01:48:26.546Z,0.00
2018-06-21T01:49:26.546Z,0.00
2018-06-21T01:50:26.550Z,0.00
2018-06-21T01:51:26.552Z,0.00
2018-06-21T01:52:26.555Z,0.00
2018-06-21T01:53:26.560Z,0.00
2018-06-21T01:54:26.563Z,0.00
2018-06-21T01:55:26.566Z,0.00
2018-06-21T01:56:26.568Z,0.00
2018-06-21T01:57:26.572Z,0.00
2018-06-21T01:58:26.573Z,0.00
2018-06-21T01:59:26.576Z,0.00
2018-06-21T02:00:26.580Z,0.00
2018-06-21T02:01:26.583Z,0.00
2018-06-21T02:02:26.587Z,0.00
2018-06-21T02:03:26.588Z,0.00
2018-06-21T02:04:26.591Z,0.00
2018-06-21T02:05:26.595Z,0.00
2018-06-21T02:06:26.597Z,0.00
2018-06-21T02:07:26.600Z,0.00
2018-06-21T02:08:26.602Z,0.00
2018-06-21T02:09:26.607Z,0.00
2018-06-21T02:10:26.608Z,0.00
2018-06-21T02:11:26.612Z,0.00
2018-06-21T02:12:26.615Z,0.00
2018-06-21T02:13:26.620Z,0.00
2018-06-21T02:14:26.619Z,0.00
2018-06-21T02:15:26.622Z,0.00
2018-06-21T02:16:26.628Z,0.00
2018-06-21T02:17:26.631Z,0.00
2018-06-21T02:18:26.633Z,0.00
2018-06-21T02:19:26.635Z,0.00
2018-06-21T02:20:26.640Z,0.00
2018-06-21T02:21:26.640Z,0.00
2018-06-21T02:22:26.644Z,0.00
2018-06-21T02:23:26.647Z,0.00
2018-06-21T02:24:26.648Z,0.00
2018-06-21T02:25:26.653Z,0.00
2018-06-21T02:26:26.655Z,0.00
2018-06-21T02:27:26.659Z,0.00
2018-06-21T02:28:26.660Z,0.00
2018-06-21T02:29:26.665Z,0.00
2018-06-21T02:30:26.669Z,0.00
2018-06-21T02:31:26.673Z,0.00
2018-06-21T02:32:26.673Z,0.00
2018-06-21T02:33:26.675Z,0.00
2018-06-21T02:34:26.722Z,0.00
2018-06-21T02:35:26.681Z,0.00
2018-06-21T02:36:26.684Z,0.00
2018-06-21T02:37:26.687Z,0.00
2018-06-21T02:38:26.687Z,0.00
2018-06-21T02:39:26.690Z,0.00
2018-06-21T02:40:26.697Z,0.00
2018-06-21T02:41:26.698Z,0.00
2018-06-21T02:42:26.702Z,0.00
2018-06-21T02:43:26.702Z,0.00
2018-06-21T02:44:26.705Z,0.00
2018-06-21T02:45:26.709Z,0.00
2018-06-21T02:46:26.710Z,0.00
2018-06-21T02:47:26.719Z,0.00
2018-06-21T02:48:26.716Z,0.00
2018-06-21T02:49:26.721Z,0.00
2018-06-21T02:50:26.721Z,0.00
2018-06-21T02:51:26.723Z,0.00
2018-06-21T02:52:26.726Z,0.00
2018-06-21T02:53:26.729Z,0.00
2018-06-21T02:54:26.731Z,0.00
2018-06-21T02:55:26.733Z,0.00
2018-06-21T02:56:26.736Z,0.00
2018-06-21T02:57:26.740Z,0.00
2018-06-21T02:58:26.740Z,0.00
2018-06-21T02:59:26.744Z,0.00
2018-06-21T03:00:26.745Z,0.00
2018-06-21T03:01:26.748Z,0.00
2018-06-21T03:02:26.751Z,0.00
2018-06-21T03:03:26.753Z,0.00
2018-06-21T03:04:26.762Z,0.00
2018-06-21T03:05:26.762Z,0.00
2018-06-21T03:06:26.763Z,5.63
2018-06-21T03:07:26.763Z,5.63
2018-06-21T03:08:26.767Z,5.63
2018-06-21T03:09:26.770Z,5.63
2018-06-21T03:10:26.772Z,5.63
2018-06-21T03:11:26.779Z,5.63
2018-06-21T03:12:26.778Z,5.63
2018-06-21T03:13:26.782Z,5.63
2018-06-21T03:14:26.783Z,5.63
2018-06-21T03:15:26.784Z,5.63
2018-06-21T03:16:26.788Z,5.63
2018-06-21T03:17:26.790Z,5.63
2018-06-21T03:18:26.793Z,5.63
2018-06-21T03:19:26.794Z,5.63
2018-06-21T03:20:26.798Z,5.63
2018-06-21T03:21:26.799Z,5.63
2018-06-21T03:22:26.802Z,5.63
2018-06-21T03:23:26.806Z,5.63
2018-06-21T03:24:26.806Z,5.63
2018-06-21T03:25:26.811Z,5.63
2018-06-21T03:26:26.810Z,5.63
2018-06-21T03:27:26.816Z,5.63
2018-06-21T03:28:26.817Z,5.63
2018-06-21T03:29:26.820Z,5.63
2018-06-21T03:30:26.822Z,5.63
2018-06-21T03:31:26.825Z,5.63
2018-06-21T03:32:26.827Z,5.63
2018-06-21T03:33:26.830Z,5.63
2018-06-21T03:34:26.831Z,5.63
2018-06-21T03:35:26.834Z,5.63
2018-06-21T03:36:26.837Z,5.63
2018-06-21T03:37:26.840Z,11.25
2018-06-21T03:38:26.843Z,11.25
2018-06-21T03:39:26.845Z,11.25
2018-06-21T03:40:26.850Z,11.25
2018-06-21T03:41:26.853Z,11.25
2018-06-21T03:42:26.853Z,16.88
2018-06-21T03:43:26.855Z,16.88
2018-06-21T03:44:26.858Z,16.88
2018-06-21T03:45:26.862Z,16.88
2018-06-21T03:46:26.862Z,22.50
2018-06-21T03:47:26.866Z,16.88
2018-06-21T03:48:26.867Z,22.50
2018-06-21T03:49:26.872Z,22.50
2018-06-21T03:50:26.875Z,22.50
2018-06-21T03:51:26.876Z,22.50
2018-06-21T03:52:26.880Z,28.13
2018-06-21T03:53:26.884Z,33.75
2018-06-21T03:54:26.886Z,33.75
2018-06-21T03:55:26.887Z,33.75
2018-06-21T03:56:26.890Z,33.75
2018-06-21T03:57:26.892Z,33.75
2018-06-21T03:58:26.896Z,33.75
2018-06-21T03:59:26.898Z,33.75
2018-06-21T04:00:26.900Z,39.38
2018-06-21T04:01:26.903Z,45.00
2018-06-21T04:02:26.906Z,45.00
2018-06-21T04:03:26.909Z,39.38
2018-06-21T04:04:26.912Z,33.75
2018-06-21T04:05:26.943Z,28.13
2018-06-21T04:06:26.917Z,22.50
2018-06-21T04:07:26.921Z,22.50
2018-06-21T04:08:27.047Z,22.50
2018-06-21T04:09:26.926Z,22.50
2018-06-21T04:10:26.927Z,22.50
2018-06-21T04:11:26.932Z,16.88
2018-06-21T04:12:26.934Z,11.25
2018-06-21T04:13:26.937Z,11.25
2018-06-21T04:14:26.939Z,11.25
2018-06-21T04:15:26.942Z,16.88
2018-06-21T04:16:26.946Z,22.50
2018-06-21T04:17:26.951Z,22.50
2018-06-21T04:18:26.950Z,22.50
2018-06-21T04:19:26.954Z,22.50
2018-06-21T04:20:26.957Z,16.88
2018-06-21T04:21:26.960Z,16.88
2018-06-21T04:22:26.962Z,16.88
2018-06-21T04:23:26.965Z,22.50
2018-06-21T04:24:26.967Z,22.50
2018-06-21T04:25:26.972Z,22.50
2018-06-21T04:26:26.973Z,28.13
2018-06-21T04:27:26.976Z,28.13
2018-06-21T04:28:26.978Z,28.13
2018-06-21T04:29:26.982Z,28.13
2018-06-21T04:30:26.985Z,28.13
2018-06-21T04:31:26.988Z,22.50
2018-06-21T04:32:27.038Z,22.50
2018-06-21T04:33:26.995Z,22.50
2018-06-21T04:34:26.995Z,22.50
2018-06-21T04:35:27.001Z,22.50
2018-06-21T04:36:27.002Z,22.50
2018-06-21T04:37:27.005Z,22.50
2018-06-21T04:38:27.008Z,22.50
2018-06-21T04:39:27.011Z,16.88
2018-06-21T04:40:27.018Z,16.88
2018-06-21T04:41:27.017Z,16.88
2018-06-21T04:42:27.019Z,16.88
2018-06-21T04:43:27.022Z,16.88
2018-06-21T04:44:27.025Z,16.88
2018-06-21T04:45:27.029Z,16.88
2018-06-21T04:46:27.031Z,16.88
2018-06-21T04:47:27.033Z,16.88
2018-06-21T04:48:27.037Z,16.88
2018-06-21T04:49:27.040Z,16.88
2018-06-21T04:50:27.043Z,11.25
2018-06-21T04:51:27.046Z,11.25
2018-06-21T04:52:27.056Z,11.25
2018-06-21T04:53:27.053Z,5.63
2018-06-21T04:54:27.053Z,5.63
2018-06-21T04:55:27.059Z,5.63
2018-06-21T04:56:27.060Z,5.63
2018-06-21T04:57:27.066Z,5.63
2018-06-21T04:58:27.065Z,0.00
2018-06-21T04:59:27.069Z,5.63
2018-06-21T05:00:27.073Z,11.25
2018-06-21T05:01:27.077Z,22.50
2018-06-21T05:02:27.078Z,28.13
2018-06-21T05:03:27.081Z,33.75
2018-06-21T05:04:27.084Z,22.50
2018-06-21T05:05:27.088Z,11.25
2018-06-21T05:06:27.151Z,5.63
2018-06-21T05:07:27.093Z,5.63
2018-06-21T05:08:27.095Z,11.25
2018-06-21T05:09:27.098Z,22.50
2018-06-21T05:10:27.101Z,33.75
2018-06-21T05:11:27.104Z,28.13
2018-06-21T05:12:27.106Z,22.50
2018-06-21T05:13:27.111Z,16.88
2018-06-21T05:14:27.112Z,16.88
2018-06-21T05:15:27.116Z,22.50
2018-06-21T05:16:27.120Z,28.13
2018-06-21T05:17:27.125Z,11.25
2018-06-21T05:18:27.124Z,11.25
2018-06-21T05:19:27.126Z,16.88
2018-06-21T05:20:27.134Z,11.25
2018-06-21T05:21:27.132Z,5.63
2018-06-21T05:22:27.135Z,11.25
2018-06-21T05:23:27.138Z,5.63
2018-06-21T05:24:27.140Z,11.25
2018-06-21T05:25:27.146Z,11.25
2018-06-21T05:26:27.145Z,16.88
2018-06-21T05:27:27.149Z,22.50
2018-06-21T05:28:27.149Z,22.50
2018-06-21T05:29:27.155Z,22.50
2018-06-21T05:30:27.156Z,22.50
2018-06-21T05:31:27.160Z,28.13
2018-06-21T05:32:27.161Z,33.75
2018-06-21T05:33:27.165Z,39.38
2018-06-21T05:34:27.166Z,56.25
2018-06-21T05:35:27.171Z,73.13
2018-06-21T05:36:27.174Z,67.50
2018-06-21T05:37:27.200Z,95.63
2018-06-21T05:38:27.177Z,151.88
2018-06-21T05:39:27.180Z,185.63
2018-06-21T05:40:27.184Z,185.63
2018-06-21T05:41:27.185Z,157.50
2018-06-21T05:42:27.187Z,135.00
2018-06-21T05:43:27.189Z,112.50
2018-06-21T05:44:27.226Z,123.75
2018-06-21T05:45:27.195Z,118.13
2018-06-21T05:46:27.196Z,95.63
2018-06-21T05:47:27.200Z,84.38
2018-06-21T05:48:27.204Z,84.38
2018-06-21T05:49:27.206Z,84.38
2018-06-21T05:50:27.207Z,78.75
2018-06-21T05:51:27.212Z,73.13
2018-06-21T05:52:27.212Z,61.88
2018-06-21T05:53:27.217Z,56.25
2018-06-21T05:54:27.217Z,50.63
2018-06-21T05:55:27.219Z,45.00
2018-06-21T05:56:27.227Z,45.00
2018-06-21T05:57:27.227Z,39.38
2018-06-21T05:58:27.226Z,39.38
2018-06-21T05:59:27.230Z,50.63
2018-06-21T06:00:27.233Z,50.63
2018-06-21T06:01:27.235Z,56.25
2018-06-21T06:02:27.237Z,61.88
2018-06-21T06:03:27.239Z,67.50
2018-06-21T06:04:27.243Z,78.75
2018-06-21T06:05:27.243Z,78.75
2018-06-21T06:06:27.247Z,84.38
2018-06-21T06:07:27.252Z,95.63
2018-06-21T06:08:27.280Z,112.50
2018-06-21T06:09:27.257Z,106.88
2018-06-21T06:10:27.256Z,95.63
2018-06-21T06:11:27.257Z,78.75
2018-06-21T06:12:27.266Z,84.38
2018-06-21T06:13:27.262Z,78.75
2018-06-21T06:14:27.265Z,73.13
2018-06-21T06:15:27.266Z,78.75
2018-06-21T06:16:27.268Z,61.88
2018-06-21T06:17:27.274Z,56.25
2018-06-21T06:18:27.272Z,67.50
2018-06-21T06:19:27.274Z,61.88
2018-06-21T06:20:27.277Z,67.50
2018-06-21T06:21:27.278Z,73.13
2018-06-21T06:22:27.281Z,78.75
2018-06-21T06:23:27.283Z,73.13
2018-06-21T06:24:27.286Z,78.75
2018-06-21T06:25:27.288Z,0.00
2018-06-21T06:26:27.290Z,0.00
2018-06-21T06:27:27.293Z,78.75
2018-06-21T06:28:27.295Z,112.50
2018-06-21T06:29:27.299Z,118.13
2018-06-21T06:30:27.299Z,0.00
2018-06-21T06:31:27.305Z,135.00
2018-06-21T06:32:27.309Z,168.75
2018-06-21T06:33:27.307Z,163.13
2018-06-21T06:34:27.307Z,0.00
2018-06-21T06:35:27.310Z,0.00
2018-06-21T06:36:27.315Z,174.38
2018-06-21T06:37:27.315Z,0.00
2018-06-21T06:38:27.315Z,0.00
2018-06-21T06:39:27.318Z,0.00
2018-06-21T06:40:27.328Z,202.50
2018-06-21T06:41:27.325Z,0.00
2018-06-21T06:42:27.329Z,0.00
2018-06-21T06:43:27.334Z,0.00
2018-06-21T06:44:27.332Z,0.00
2018-06-21T06:45:27.334Z,0.00
2018-06-21T06:46:27.335Z,0.00
2018-06-21T06:47:27.338Z,0.00
2018-06-21T06:48:27.340Z,0.00
2018-06-21T06:49:27.342Z,0.00
2018-06-21T06:50:27.344Z,163.13
2018-06-21T06:51:27.347Z,0.00
2018-06-21T06:52:27.350Z,0.00
2018-06-21T06:53:27.353Z,123.75
2018-06-21T06:54:27.371Z,0.00
2018-06-21T06:55:27.358Z,0.00
2018-06-21T06:56:27.359Z,0.00
2018-06-21T06:57:27.376Z,0.00
2018-06-21T06:58:27.365Z,0.00
2018-06-21T06:59:27.368Z,0.00
2018-06-21T07:00:27.370Z,0.00
2018-06-21T07:01:27.373Z,0.00
2018-06-21T07:02:27.374Z,168.75
2018-06-21T07:03:27.378Z,146.25
2018-06-21T07:04:27.384Z,118.13
2018-06-21T07:05:27.384Z,112.50
2018-06-21T07:06:27.386Z,73.13
2018-06-21T07:07:27.389Z,101.25
2018-06-21T07:08:27.480Z,129.38
2018-06-21T07:09:27.391Z,0.00
2018-06-21T07:10:27.396Z,0.00
2018-06-21T07:11:27.397Z,0.00
2018-06-21T07:12:27.440Z,95.63
2018-06-21T07:13:27.403Z,95.63
2018-06-21T07:14:27.445Z,129.38
2018-06-21T07:15:27.407Z,168.75
2018-06-21T07:16:27.412Z,247.50
2018-06-21T07:17:27.413Z,191.25
2018-06-21T07:18:27.416Z,123.75
2018-06-21T07:19:27.416Z,180.00
2018-06-21T07:20:27.437Z,123.75
2018-06-21T07:21:27.421Z,140.63
2018-06-21T07:22:27.424Z,123.75
2018-06-21T07:23:27.424Z,112.50
2018-06-21T07:24:27.428Z,0.00
2018-06-21T07:25:27.431Z,112.50
2018-06-21T07:26:27.432Z,129.38
2018-06-21T07:27:27.435Z,140.63
2018-06-21T07:28:27.454Z,191.25
2018-06-21T07:29:27.443Z,168.75
2018-06-21T07:30:27.445Z,0.00
2018-06-21T07:31:27.442Z,0.00
2018-06-21T07:32:27.444Z,0.00
2018-06-21T07:33:27.503Z,0.00
2018-06-21T07:34:27.448Z,67.50
2018-06-21T07:35:27.456Z,123.75
2018-06-21T07:36:27.455Z,225.00
2018-06-21T07:37:27.460Z,219.38
2018-06-21T07:38:27.457Z,315.00
2018-06-21T07:39:27.459Z,348.75
2018-06-21T07:40:27.462Z,360.00
2018-06-21T07:41:27.464Z,433.13
2018-06-21T07:42:27.468Z,478.13
2018-06-21T07:43:27.467Z,641.25
2018-06-21T07:44:27.470Z,776.25
2018-06-21T07:45:27.472Z,922.50
2018-06-21T07:46:27.472Z,866.25
2018-06-21T07:47:27.476Z,933.75
2018-06-21T07:48:27.478Z,984.38
2018-06-21T07:49:27.483Z,1046.25
2018-06-21T07:50:27.482Z,1372.50
2018-06-21T07:51:27.485Z,2171.25
2018-06-21T07:52:27.489Z,1389.38
2018-06-21T07:53:27.491Z,1580.63
2018-06-21T07:54:27.494Z,3420.00
2018-06-21T07:55:27.499Z,2733.75
2018-06-21T07:56:27.501Z,1513.13
2018-06-21T07:57:27.504Z,663.75
2018-06-21T07:58:27.507Z,1192.50
2018-06-21T07:59:27.513Z,2041.88
2018-06-21T08:00:27.517Z,2047.50
2018-06-21T08:01:27.521Z,1305.00
2018-06-21T08:02:27.526Z,1361.25
2018-06-21T08:03:27.531Z,2109.38
2018-06-21T08:04:27.534Z,939.38
2018-06-21T08:05:27.540Z,1012.50
2018-06-21T08:06:27.545Z,1428.75
2018-06-21T08:07:27.550Z,4190.63
2018-06-21T08:08:27.556Z,3453.75
2018-06-21T08:09:27.563Z,1451.25
2018-06-21T08:10:27.568Z,3594.38
2018-06-21T08:11:27.573Z,810.00
2018-06-21T08:12:27.580Z,821.25
2018-06-21T08:13:27.586Z,883.13
2018-06-21T08:14:27.591Z,2086.88
2018-06-21T08:15:27.598Z,1321.88
2018-06-21T08:16:27.604Z,2221.88
2018-06-21T08:17:27.619Z,900.00
2018-06-21T08:18:27.619Z,2373.75
2018-06-21T08:19:27.624Z,590.63
2018-06-21T08:20:27.632Z,495.00
2018-06-21T08:21:27.639Z,472.50
2018-06-21T08:22:27.644Z,444.38
2018-06-21T08:23:27.658Z,489.38
2018-06-21T08:24:27.663Z,360.00
2018-06-21T08:25:27.666Z,320.63
2018-06-21T08:26:27.672Z,253.13
2018-06-21T08:27:27.679Z,236.25
2018-06-21T08:28:27.686Z,365.63
2018-06-21T08:29:27.691Z,1890.00
2018-06-21T08:30:27.697Z,675.00
2018-06-21T08:31:27.703Z,787.50
2018-06-21T08:32:27.709Z,708.75
2018-06-21T08:33:27.713Z,821.25
2018-06-21T08:34:27.720Z,3870.00
2018-06-21T08:35:27.726Z,675.00
2018-06-21T08:36:27.731Z,2750.63
2018-06-21T08:37:27.736Z,3920.63
2018-06-21T08:38:27.740Z,4111.88
2018-06-21T08:39:27.749Z,1468.13
2018-06-21T08:40:27.754Z,1226.25
2018-06-21T08:41:27.760Z,2283.75
2018-06-21T08:42:27.766Z,1344.38
2018-06-21T08:43:27.773Z,1411.88
2018-06-21T08:44:27.781Z,860.63
2018-06-21T08:45:27.788Z,1440.00
2018-06-21T08:46:27.796Z,1665.00
2018-06-21T08:47:27.802Z,3920.63
2018-06-21T08:48:27.809Z,3864.38
2018-06-21T08:49:27.815Z,1046.25
2018-06-21T08:50:27.822Z,1659.38
2018-06-21T08:51:27.829Z,2255.63
2018-06-21T08:52:27.837Z,2902.50
2018-06-21T08:53:27.845Z,3071.25
2018-06-21T08:54:27.854Z,2418.75
2018-06-21T08:55:27.863Z,4235.63
2018-06-21T08:56:27.868Z,4185.00
2018-06-21T08:57:27.878Z,4348.13
2018-06-21T08:58:27.915Z,3116.25
2018-06-21T08:59:27.896Z,2441.25
2018-06-21T09:00:27.907Z,1485.00
2018-06-21T09:01:27.915Z,1260.00
2018-06-21T09:02:27.922Z,1389.38
2018-06-21T09:03:27.932Z,2480.63
2018-06-21T09:04:27.940Z,1811.25
2018-06-21T09:05:27.952Z,1366.88
2018-06-21T09:06:27.959Z,1321.88
2018-06-21T09:07:27.968Z,1552.50
2018-06-21T09:08:27.978Z,888.75
2018-06-21T09:09:27.990Z,669.38
2018-06-21T09:10:27.996Z,585.00
2018-06-21T09:11:28.006Z,630.00
2018-06-21T09:12:28.015Z,562.50
2018-06-21T09:13:28.025Z,624.38
2018-06-21T09:14:28.031Z,579.38
2018-06-21T09:15:28.135Z,478.13
2018-06-21T09:16:28.050Z,236.25
2018-06-21T09:17:28.059Z,123.75
2018-06-21T09:18:28.072Z,174.38
2018-06-21T09:19:28.072Z,213.75
2018-06-21T09:20:28.080Z,354.38
2018-06-21T09:21:28.088Z,281.25
2018-06-21T09:22:28.094Z,410.63
2018-06-21T09:23:28.103Z,393.75
2018-06-21T09:24:28.108Z,320.63
2018-06-21T09:25:28.118Z,450.00
2018-06-21T09:26:28.120Z,2958.75
2018-06-21T09:27:28.126Z,1839.38
2018-06-21T09:28:28.132Z,1271.25
2018-06-21T09:29:28.137Z,3003.75
2018-06-21T09:30:28.144Z,3622.50
2018-06-21T09:31:28.157Z,3521.25
2018-06-21T09:32:28.158Z,2160.00
2018-06-21T09:33:28.162Z,3965.63
2018-06-21T09:34:28.168Z,3543.75
2018-06-21T09:35:28.175Z,1108.13
2018-06-21T09:36:28.181Z,759.38
2018-06-21T09:37:28.189Z,3566.25
2018-06-21T09:38:28.196Z,3425.63
2018-06-21T09:39:28.201Z,3526.88
2018-06-21T09:40:28.209Z,3510.00
2018-06-21T09:41:28.219Z,3487.50
2018-06-21T09:42:28.224Z,2660.63
2018-06-21T09:43:28.233Z,3605.63
2018-06-21T09:44:28.254Z,3206.25
2018-06-21T09:45:28.248Z,731.25
2018-06-21T09:46:33.879Z,3521.25
2018-06-21T09:47:28.264Z,483.75
2018-06-21T09:48:28.272Z,489.38
2018-06-21T09:49:28.281Z,3465.00
2018-06-21T09:50:28.289Z,2559.38
2018-06-21T09:51:28.297Z,3605.63
2018-06-21T09:52:28.362Z,613.13
2018-06-21T09:53:28.315Z,3521.25
2018-06-21T09:54:28.322Z,703.13
2018-06-21T09:55:28.331Z,2047.50
2018-06-21T09:56:28.341Z,770.63
2018-06-21T09:57:28.352Z,393.75
2018-06-21T09:58:28.359Z,911.25
2018-06-21T09:59:28.365Z,3009.38
2018-06-21T10:00:28.372Z,3082.50
2018-06-21T10:01:28.381Z,3009.38
2018-06-21T10:02:28.390Z,2880.00
2018-06-21T10:03:28.398Z,2525.63
2018-06-21T10:04:28.407Z,1704.38
2018-06-21T10:05:28.413Z,1153.13
2018-06-21T10:06:28.422Z,1091.25
2018-06-21T10:07:28.431Z,1153.13
2018-06-21T10:08:28.440Z,973.13
2018-06-21T10:09:28.449Z,1068.75
2018-06-21T10:10:28.458Z,1051.88
2018-06-21T10:11:28.470Z,1040.63
2018-06-21T10:12:28.476Z,967.50
2018-06-21T10:13:28.485Z,939.38
2018-06-21T10:14:28.493Z,939.38
2018-06-21T10:15:28.503Z,905.63
2018-06-21T10:16:28.515Z,905.63
2018-06-21T10:17:28.523Z,922.50
2018-06-21T10:18:28.529Z,939.38
2018-06-21T10:19:28.540Z,945.00
2018-06-21T10:20:28.572Z,950.63
2018-06-21T10:21:28.561Z,1006.88
2018-06-21T10:22:28.568Z,450.00
2018-06-21T10:23:28.579Z,781.88
2018-06-21T10:24:28.588Z,950.63
2018-06-21T10:25:28.600Z,337.50
2018-06-21T10:26:28.609Z,444.38
2018-06-21T10:27:28.619Z,956.25
2018-06-21T10:28:28.628Z,922.50
2018-06-21T10:29:28.638Z,916.88
2018-06-21T10:30:28.647Z,978.75
2018-06-21T10:31:28.657Z,1023.75
2018-06-21T10:32:28.667Z,472.50
2018-06-21T10:33:28.677Z,1040.63
2018-06-21T10:34:28.690Z,961.88
2018-06-21T10:35:28.696Z,281.25
2018-06-21T10:36:28.705Z,984.38
2018-06-21T10:37:28.715Z,1018.13
2018-06-21T10:38:28.724Z,1046.25
2018-06-21T10:39:28.733Z,1068.75
2018-06-21T10:40:28.743Z,1130.63
2018-06-21T10:41:28.751Z,1113.75
2018-06-21T10:42:28.768Z,1046.25
2018-06-21T10:43:28.768Z,1035.00
2018-06-21T10:44:28.777Z,1012.50
2018-06-21T10:45:28.789Z,1029.38
2018-06-21T10:46:28.796Z,1046.25
2018-06-21T10:47:28.807Z,1091.25
2018-06-21T10:48:28.818Z,1170.00
2018-06-21T10:49:28.825Z,1265.63
2018-06-21T10:50:28.834Z,1231.88
2018-06-21T10:51:28.843Z,1164.38
2018-06-21T10:52:28.854Z,1108.13
2018-06-21T10:53:28.863Z,489.38
2018-06-21T10:54:28.872Z,495.00
2018-06-21T10:55:28.882Z,438.75
2018-06-21T10:56:28.892Z,922.50
2018-06-21T10:57:28.902Z,551.25
2018-06-21T10:58:28.911Z,613.13
2018-06-21T10:59:28.920Z,894.38
2018-06-21T11:00:28.930Z,978.75
2018-06-21T11:01:28.940Z,860.63
2018-06-21T11:02:28.947Z,753.75
2018-06-21T11:03:28.957Z,691.88
2018-06-21T11:04:28.966Z,663.75
2018-06-21T11:05:28.974Z,663.75
2018-06-21T11:06:28.985Z,658.13
2018-06-21T11:07:28.992Z,680.63
2018-06-21T11:08:29.000Z,669.38
2018-06-21T11:09:29.012Z,703.13
2018-06-21T11:10:29.020Z,697.50
2018-06-21T11:11:29.028Z,635.63
2018-06-21T11:12:29.036Z,517.50
2018-06-21T11:13:29.044Z,759.38
2018-06-21T11:14:29.052Z,686.25
2018-06-21T11:15:29.061Z,725.63
2018-06-21T11:16:29.068Z,714.38
2018-06-21T11:17:29.077Z,483.75
2018-06-21T11:18:29.083Z,500.63
2018-06-21T11:19:29.094Z,500.63
2018-06-21T11:20:29.099Z,399.38
2018-06-21T11:21:29.144Z,641.25
2018-06-21T11:22:29.113Z,376.88
2018-06-21T11:23:29.122Z,669.38
2018-06-21T11:24:29.128Z,450.00
2018-06-21T11:25:29.138Z,613.13
2018-06-21T11:26:29.143Z,624.38
2018-06-21T11:27:29.150Z,506.25
2018-06-21T11:28:29.157Z,303.75
2018-06-21T11:29:29.164Z,309.38
2018-06-21T11:30:29.170Z,292.50
2018-06-21T11:31:29.176Z,241.88
2018-06-21T11:32:29.182Z,444.38
2018-06-21T11:33:29.190Z,433.13
2018-06-21T11:34:29.196Z,388.13
2018-06-21T11:35:29.200Z,399.38
2018-06-21T11:36:29.206Z,433.13
2018-06-21T11:37:29.215Z,495.00
2018-06-21T11:38:29.217Z,343.13
2018-06-21T11:39:29.223Z,348.75
2018-06-21T11:40:29.231Z,416.25
2018-06-21T11:41:29.234Z,489.38
2018-06-21T11:42:29.239Z,444.38
2018-06-21T11:43:29.243Z,466.88
2018-06-21T11:44:29.253Z,360.00
2018-06-21T11:45:29.255Z,427.50
2018-06-21T11:46:29.258Z,506.25
2018-06-21T11:47:29.265Z,320.63
2018-06-21T11:48:29.271Z,433.13
2018-06-21T11:49:29.275Z,421.88
2018-06-21T11:50:29.281Z,416.25
2018-06-21T11:51:29.285Z,388.13
2018-06-21T11:52:29.290Z,371.25
2018-06-21T11:53:29.295Z,371.25
2018-06-21T11:54:29.300Z,416.25
2018-06-21T11:55:29.303Z,478.13
2018-06-21T11:56:29.311Z,489.38
2018-06-21T11:57:29.315Z,472.50
2018-06-21T11:58:29.317Z,399.38
2018-06-21T11:59:29.326Z,399.38
2018-06-21T12:00:29.329Z,433.13
2018-06-21T12:01:29.332Z,461.25
2018-06-21T12:02:29.337Z,337.50
2018-06-21T12:03:29.394Z,438.75
2018-06-21T12:04:29.346Z,450.00
2018-06-21T12:05:29.351Z,472.50
2018-06-21T12:06:29.355Z,315.00
2018-06-21T12:07:29.358Z,348.75
2018-06-21T12:08:29.369Z,360.00
2018-06-21T12:09:29.369Z,500.63
2018-06-21T12:10:29.372Z,489.38
2018-06-21T12:11:29.380Z,303.75
2018-06-21T12:12:29.385Z,292.50
2018-06-21T12:13:29.429Z,309.38
2018-06-21T12:14:29.397Z,275.63
2018-06-21T12:15:29.394Z,270.00
2018-06-21T12:16:29.397Z,281.25
2018-06-21T12:17:29.403Z,303.75
2018-06-21T12:18:29.406Z,281.25
2018-06-21T12:19:29.410Z,241.88
2018-06-21T12:20:29.414Z,354.38
2018-06-21T12:21:29.418Z,326.25
2018-06-21T12:22:29.422Z,303.75
2018-06-21T12:23:29.426Z,298.13
2018-06-21T12:24:29.430Z,309.38
2018-06-21T12:25:29.434Z,315.00
2018-06-21T12:26:29.438Z,258.75
2018-06-21T12:27:29.441Z,331.88
2018-06-21T12:28:29.446Z,376.88
2018-06-21T12:29:29.448Z,421.88
2018-06-21T12:30:29.452Z,399.38
2018-06-21T12:31:29.455Z,264.38
2018-06-21T12:32:29.460Z,275.63
2018-06-21T12:33:29.464Z,421.88
2018-06-21T12:34:29.465Z,405.00
2018-06-21T12:35:29.470Z,343.13
2018-06-21T12:36:29.473Z,303.75
2018-06-21T12:37:29.477Z,298.13
2018-06-21T12:38:29.480Z,298.13
2018-06-21T12:39:29.482Z,292.50
2018-06-21T12:40:29.488Z,298.13
2018-06-21T12:41:29.490Z,292.50
2018-06-21T12:42:29.493Z,298.13
2018-06-21T12:43:29.542Z,303.75
2018-06-21T12:44:29.501Z,309.38
2018-06-21T12:45:29.505Z,309.38
2018-06-21T12:46:29.507Z,298.13